Time;durP1;ratioP1;P1;durP2;ratioP2;P2;SDS_P1;SDS_P2;PMS_P1;PMS_P2;Temp;Humidity;BMP_temperature;BMP_pressure;BME280_temperature;BME280_humidity;BME280_pressure;Samples;Min_cycle;Max_cycle;Signal;HPM_P1;HPM_P2
2023/03/23 00:02:12;;;;;;;5.78;2.17;;;10.40;99.90;;;;;;5125901;28;20047;-83
2023/03/23 00:04:38;;;;;;;3.85;2.58;;;10.40;99.90;;;;;;5107347;28;20092;-82
2023/03/23 00:07:04;;;;;;;7.03;4.03;;;10.50;99.90;;;;;;5125078;28;20122;-82
2023/03/23 00:09:34;;;;;;;9.32;4.32;;;10.50;99.90;;;;;;5090984;28;20051;-83
2023/03/23 00:12:05;;;;;;;6.47;4.30;;;10.50;99.90;;;;;;5105999;28;20490;-82
2023/03/23 00:14:41;;;;;;;8.13;4.88;;;10.80;99.90;;;;;;5107999;28;20478;-83
2023/03/23 00:17:09;;;;;;;11.52;5.03;;;10.60;99.90;;;;;;5107350;28;20118;-83
2023/03/23 00:19:48;;;;;;;9.95;4.30;;;11.20;99.90;;;;;;5125318;28;20044;-83
2023/03/23 00:22:15;;;;;;;8.20;3.78;;;10.60;99.90;;;;;;5108361;28;20435;-82
2023/03/23 00:24:42;;;;;;;7.63;3.33;;;10.50;99.90;;;;;;5105330;28;20137;-82
2023/03/23 00:27:12;;;;;;;9.68;3.35;;;10.50;99.90;;;;;;5126464;28;20055;-82
2023/03/23 00:29:40;;;;;;;4.35;3.10;;;11.10;99.90;;;;;;5105942;28;20054;-82
2023/03/23 00:32:06;;;;;;;3.42;2.88;;;10.70;99.90;;;;;;5107020;28;20043;-81
2023/03/23 00:34:34;;;;;;;5.40;3.40;;;10.40;99.90;;;;;;5107102;28;20155;-82
2023/03/23 00:37:00;;;;;;;3.85;2.55;;;10.40;99.90;;;;;;5089695;28;20047;-81
2023/03/23 00:39:27;;;;;;;4.85;2.97;;;10.40;99.90;;;;;;5107768;28;20043;-81
2023/03/23 00:42:00;;;;;;;7.25;3.78;;;10.40;99.90;;;;;;5105337;28;20083;-82
2023/03/23 00:44:30;;;;;;;5.25;3.38;;;10.40;99.90;;;;;;5091299;28;20043;-81
2023/03/23 00:46:56;;;;;;;4.78;3.75;;;10.40;99.90;;;;;;5106628;28;20134;-81
2023/03/23 00:49:27;;;;;;;7.50;4.70;;;10.40;99.90;;;;;;5089744;28;20035;-81
2023/03/23 00:51:54;;;;;;;7.75;5.47;;;10.40;99.90;;;;;;5090743;28;20051;-81
2023/03/23 00:54:20;;;;;;;8.65;5.55;;;10.50;99.90;;;;;;5088682;28;20050;-81
2023/03/23 00:56:46;;;;;;;12.70;8.00;;;10.50;99.90;;;;;;5110151;27;20440;-81
2023/03/23 00:59:12;;;;;;;11.07;8.18;;;10.50;99.90;;;;;;5092097;27;20039;-81
2023/03/23 01:01:39;;;;;;;11.40;8.35;;;10.50;99.90;;;;;;5094304;27;20147;-81
2023/03/23 01:04:05;;;;;;;15.82;8.98;;;10.50;99.90;;;;;;5110338;27;20047;-81
2023/03/23 01:06:38;;;;;;;16.30;9.20;;;10.60;99.90;;;;;;5109981;27;20104;-81
2023/03/23 01:09:05;;;;;;;20.45;10.07;;;10.60;99.90;;;;;;5110685;27;20139;-82
2023/03/23 01:11:32;;;;;;;12.30;6.85;;;10.60;99.90;;;;;;5108921;27;20043;-81
2023/03/23 01:13:58;;;;;;;9.30;5.10;;;10.70;99.90;;;;;;5111644;27;20588;-81
2023/03/23 01:16:24;;;;;;;8.82;4.30;;;11.00;99.90;;;;;;5108515;27;20545;-81
2023/03/23 01:18:50;;;;;;;7.28;3.72;;;10.70;99.90;;;;;;5094701;27;20088;-82
2023/03/23 01:21:17;;;;;;;9.20;3.25;;;10.60;99.90;;;;;;5128177;27;20062;-81
2023/03/23 01:23:50;;;;;;;6.45;2.75;;;10.70;99.90;;;;;;5092707;27;20043;-80
2023/03/23 01:26:19;;;;;;;3.78;2.35;;;9.80;99.90;;;;;;5109892;27;20138;-82
2023/03/23 01:28:45;;;;;;;2.97;1.73;;;11.10;99.90;;;;;;5108446;27;20058;-82
2023/03/23 01:31:15;;;;;;;3.53;2.00;;;10.50;99.90;;;;;;5094031;27;20047;-80
2023/03/23 01:33:42;;;;;;;3.20;1.65;;;10.50;99.90;;;;;;5108321;27;20035;-80
2023/03/23 01:36:14;;;;;;;5.28;1.88;;;10.40;99.90;;;;;;5110493;27;20070;-80
2023/03/23 01:38:42;;;;;;;5.63;2.15;;;10.40;99.90;;;;;;5109446;27;20074;-79
2023/03/23 01:41:08;;;;;;;3.60;2.60;;;10.50;99.90;;;;;;5108954;27;20043;-82
2023/03/23 01:43:34;;;;;;;7.72;3.90;;;10.40;99.90;;;;;;5110045;27;20054;-80
2023/03/23 01:46:00;;;;;;;5.63;3.58;;;10.40;99.90;;;;;;5108120;27;20047;-82
2023/03/23 01:48:36;;;;;;;10.88;4.50;;;10.50;99.90;;;;;;5093519;27;20073;-82
2023/03/23 01:51:08;;;;;;;11.98;4.75;;;10.60;99.90;;;;;;5092129;27;20096;-80
2023/03/23 01:53:42;;;;;;;9.50;4.32;;;11.10;99.90;;;;;;5092488;27;20040;-80
2023/03/23 01:56:11;;;;;;;9.80;5.07;;;11.00;99.90;;;;;;5128837;27;20039;-80
2023/03/23 01:58:38;;;;;;;9.50;4.93;;;10.60;99.90;;;;;;5107985;27;20047;-79
2023/03/23 02:01:07;;;;;;;9.23;4.97;;;10.70;99.90;;;;;;5093377;27;20047;-82
2023/03/23 02:03:36;;;;;;;11.32;5.10;;;10.90;99.90;;;;;;5090837;27;20053;-79
2023/03/23 02:06:03;;;;;;;10.70;4.93;;;10.80;99.90;;;;;;5110169;27;20047;-79
2023/03/23 02:08:32;;;;;;;8.10;5.47;;;10.80;99.90;;;;;;5108525;27;20038;-81
2023/03/23 02:10:58;;;;;;;16.08;5.57;;;10.80;99.90;;;;;;5091522;27;20047;-81
2023/03/23 02:13:25;;;;;;;11.52;5.13;;;10.90;99.90;;;;;;5109936;27;20041;-81
2023/03/23 02:16:17;;;;;;;9.18;4.75;;;10.90;99.90;;;;;;5057619;27;20078;-82
2023/03/23 02:19:08;;;;;;;14.45;5.43;;;11.00;99.90;;;;;;5093023;27;20046;-81
2023/03/23 02:21:59;;;;;;;8.93;4.30;;;11.00;99.90;;;;;;5108566;27;20046;-81
2023/03/23 02:25:18;;;;;;;11.55;4.82;;;11.00;99.90;;;;;;5107319;27;20748;-81
2023/03/23 02:28:02;;;;;;;8.43;4.28;;;11.00;99.90;;;;;;5050225;27;20077;-80
2023/03/23 02:30:43;;;;;;;6.03;4.03;;;11.00;99.90;;;;;;5092810;27;20448;-81
2023/03/23 02:33:23;;;;;;;12.65;4.70;;;11.10;99.90;;;;;;5090023;27;20051;-81
2023/03/23 02:36:02;;;;;;;16.45;4.57;;;11.10;99.90;;;;;;5109760;27;20043;-80
2023/03/23 02:38:40;;;;;;;9.40;4.25;;;11.10;99.90;;;;;;5091130;27;20068;-81
2023/03/23 02:41:08;;;;;;;11.23;4.13;;;11.10;99.90;;;;;;5108223;27;20535;-81
2023/03/23 02:43:44;;;;;;;7.53;3.90;;;11.20;99.90;;;;;;5109232;27;20056;-81
2023/03/23 02:46:10;;;;;;;7.50;4.05;;;11.20;99.90;;;;;;5106996;27;20047;-81
2023/03/23 02:48:39;;;;;;;10.38;4.25;;;11.20;99.90;;;;;;5092428;27;20062;-80
2023/03/23 02:51:07;;;;;;;7.10;4.30;;;11.10;99.90;;;;;;5107644;27;20130;-80
2023/03/23 02:53:37;;;;;;;10.98;4.18;;;11.10;99.90;;;;;;5108042;27;20039;-81
2023/03/23 02:56:04;;;;;;;8.02;3.45;;;11.10;99.90;;;;;;5108469;27;20039;-81
2023/03/23 02:58:31;;;;;;;9.43;3.70;;;11.10;99.90;;;;;;5125219;27;20062;-81
2023/03/23 03:00:58;;;;;;;6.20;3.65;;;11.20;99.90;;;;;;5127610;27;20054;-81
2023/03/23 03:03:28;;;;;;;4.60;3.17;;;11.20;99.90;;;;;;5089966;27;20051;-80
2023/03/23 03:06:08;;;;;;;6.55;3.40;;;11.20;99.90;;;;;;5127433;27;20039;-80
2023/03/23 03:08:39;;;;;;;10.43;3.40;;;11.20;99.90;;;;;;5108171;27;20131;-80
2023/03/23 03:11:32;;;;;;;8.23;3.25;;;11.20;99.90;;;;;;5090628;27;20047;-80
2023/03/23 03:14:08;;;;;;;11.52;3.80;;;11.20;99.90;;;;;;5107608;27;20143;-80
2023/03/23 03:16:40;;;;;;;10.32;3.45;;;11.30;99.90;;;;;;5106705;27;20062;-80
2023/03/23 03:19:15;;;;;;;7.68;3.38;;;11.20;99.90;;;;;;5107318;27;20069;-80
2023/03/23 03:21:46;;;;;;;8.57;3.40;;;11.20;99.90;;;;;;5091166;27;20080;-81
2023/03/23 03:24:18;;;;;;;10.70;3.25;;;11.20;99.90;;;;;;5106333;27;20052;-80
2023/03/23 03:26:50;;;;;;;4.22;2.42;;;11.20;99.90;;;;;;5091666;27;20047;-80
2023/03/23 03:29:20;;;;;;;6.18;3.10;;;11.20;99.90;;;;;;5105998;27;20078;-81
2023/03/23 03:31:48;;;;;;;4.93;2.90;;;11.20;99.90;;;;;;5108363;27;20093;-80
2023/03/23 03:34:17;;;;;;;6.85;3.45;;;11.20;99.90;;;;;;5107281;27;20486;-80
2023/03/23 03:36:45;;;;;;;7.80;4.25;;;11.20;99.90;;;;;;5090649;27;20408;-81
2023/03/23 03:39:14;;;;;;;6.70;2.47;;;11.20;99.90;;;;;;5091087;27;20116;-81
2023/03/23 03:41:41;;;;;;;6.32;2.53;;;11.30;99.90;;;;;;5089359;27;20513;-80
2023/03/23 03:44:07;;;;;;;9.25;3.50;;;10.90;99.90;;;;;;5091875;27;20509;-81
2023/03/23 03:46:34;;;;;;;7.20;3.20;;;11.60;99.90;;;;;;5106752;27;20035;-81
2023/03/23 03:49:02;;;;;;;6.45;2.25;;;11.20;99.90;;;;;;5090404;27;20070;-81
2023/03/23 03:51:29;;;;;;;6.55;2.72;;;11.30;99.90;;;;;;5090194;27;20043;-80
2023/03/23 03:53:55;;;;;;;6.45;2.75;;;11.20;99.90;;;;;;5106339;27;20043;-81
2023/03/23 03:56:27;;;;;;;11.95;2.88;;;11.20;99.90;;;;;;5108416;28;20401;-81
2023/03/23 03:58:53;;;;;;;16.08;4.18;;;11.40;99.90;;;;;;5089068;28;20046;-81
2023/03/23 04:01:23;;;;;;;5.50;2.70;;;11.20;99.90;;;;;;5091654;28;20077;-82
2023/03/23 04:03:50;;;;;;;8.30;2.63;;;11.20;99.90;;;;;;5106696;28;20550;-82
2023/03/23 04:06:18;;;;;;;7.22;2.70;;;11.10;99.90;;;;;;5107082;28;20498;-83
2023/03/23 04:08:45;;;;;;;7.25;3.13;;;11.10;99.90;;;;;;5107480;28;20092;-82
2023/03/23 04:11:13;;;;;;;3.55;2.35;;;11.00;99.90;;;;;;5089946;28;20386;-81
2023/03/23 04:13:40;;;;;;;8.20;3.38;;;11.30;99.90;;;;;;5107921;28;20083;-83
2023/03/23 04:16:07;;;;;;;6.93;2.13;;;10.90;99.90;;;;;;5105709;28;20047;-83
2023/03/23 04:18:33;;;;;;;5.10;2.30;;;10.80;99.90;;;;;;5074437;28;20039;-82
2023/03/23 04:21:00;;;;;;;6.95;1.70;;;10.80;99.90;;;;;;5106200;28;20490;-83
2023/03/23 04:23:30;;;;;;;3.35;1.50;;;10.80;99.90;;;;;;5107249;28;20078;-83
2023/03/23 04:25:57;;;;;;;2.53;1.40;;;10.70;99.90;;;;;;5090303;28;20047;-83
2023/03/23 04:28:27;;;;;;;4.35;1.08;;;10.70;99.90;;;;;;5089080;28;20055;-83
2023/03/23 04:30:54;;;;;;;3.22;1.20;;;10.60;99.90;;;;;;5076686;27;20078;-83
2023/03/23 04:33:26;;;;;;;3.30;1.25;;;10.60;99.90;;;;;;5093114;27;20070;-83
2023/03/23 04:36:00;;;;;;;4.35;1.38;;;10.80;99.90;;;;;;5111924;27;20375;-83
2023/03/23 04:38:27;;;;;;;4.55;1.52;;;10.50;99.90;;;;;;5110581;27;20130;-83
2023/03/23 04:40:54;;;;;;;3.85;1.27;;;10.50;99.90;;;;;;5076967;27;20047;-81
2023/03/23 04:43:22;;;;;;;2.22;0.95;;;10.50;99.90;;;;;;5095018;27;20039;-81
2023/03/23 04:46:00;;;;;;;5.25;1.00;;;10.40;99.90;;;;;;5109163;27;20035;-80
2023/03/23 04:48:29;;;;;;;4.22;1.27;;;10.40;99.90;;;;;;5095032;27;20043;-80
2023/03/23 04:50:55;;;;;;;4.22;1.80;;;10.60;99.90;;;;;;5109517;27;20043;-80
2023/03/23 04:53:21;;;;;;;7.00;1.30;;;10.40;99.90;;;;;;5110795;27;20450;-80
2023/03/23 04:55:48;;;;;;;6.20;1.63;;;10.40;99.90;;;;;;5093496;27;20122;-80
2023/03/23 04:58:15;;;;;;;5.72;1.35;;;10.40;99.90;;;;;;5092598;27;20039;-80
2023/03/23 05:00:43;;;;;;;9.05;1.98;;;10.40;99.90;;;;;;5111870;27;20040;-80
2023/03/23 05:03:10;;;;;;;6.35;1.38;;;10.60;99.90;;;;;;5092781;27;20201;-80
2023/03/23 05:05:36;;;;;;;6.50;1.08;;;10.70;99.90;;;;;;5094669;27;20436;-80
2023/03/23 05:08:01;;;;;;;10.43;1.60;;;10.30;99.90;;;;;;5075450;27;20100;-80
2023/03/23 05:10:27;;;;;;;5.32;1.17;;;10.30;99.90;;;;;;5093422;27;20512;-80
2023/03/23 05:12:54;;;;;;;7.30;1.33;;;10.20;99.90;;;;;;5110170;27;20042;-80
2023/03/23 05:15:20;;;;;;;8.63;1.65;;;10.90;99.90;;;;;;5109791;27;20039;-80
2023/03/23 05:17:46;;;;;;;7.72;1.23;;;10.30;99.90;;;;;;5111450;27;20134;-81
2023/03/23 05:20:14;;;;;;;9.05;2.05;;;10.30;99.90;;;;;;5108594;27;20509;-81
2023/03/23 05:22:41;;;;;;;8.55;1.70;;;10.30;99.90;;;;;;5093990;27;20078;-80
2023/03/23 05:25:10;;;;;;;7.15;1.83;;;10.30;99.90;;;;;;5088309;28;20048;-80
2023/03/23 05:27:37;;;;;;;8.40;1.73;;;10.40;99.90;;;;;;5090088;28;20344;-81
2023/03/23 05:30:05;;;;;;;17.75;2.17;;;10.40;99.90;;;;;;5106432;28;20047;-80
2023/03/23 05:32:30;;;;;;;11.65;2.28;;;10.40;99.90;;;;;;5105443;28;20062;-80
2023/03/23 05:34:57;;;;;;;12.30;2.47;;;10.50;99.90;;;;;;5090231;28;20047;-80
2023/03/23 05:37:24;;;;;;;10.40;2.67;;;10.50;99.90;;;;;;5088059;28;20499;-80
2023/03/23 05:39:53;;;;;;;9.80;2.58;;;10.50;99.90;;;;;;5090807;28;20062;-80
2023/03/23 05:42:20;;;;;;;9.55;2.38;;;10.60;99.90;;;;;;5105195;28;20043;-80
2023/03/23 05:44:46;;;;;;;11.23;2.72;;;10.50;99.90;;;;;;5106569;28;20039;-80
2023/03/23 05:47:13;;;;;;;11.48;2.90;;;10.60;99.90;;;;;;5106491;28;20056;-80
2023/03/23 05:49:38;;;;;;;13.38;2.53;;;10.60;99.90;;;;;;5088445;28;20398;-80
2023/03/23 05:52:04;;;;;;;26.77;3.92;;;10.60;99.90;;;;;;5107049;28;20042;-80
2023/03/23 05:54:30;;;;;;;20.60;2.08;;;10.60;99.90;;;;;;5104752;28;20036;-80
2023/03/23 05:56:55;;;;;;;19.80;4.85;;;10.60;99.90;;;;;;5073409;28;20130;-80
2023/03/23 05:59:21;;;;;;;21.65;2.72;;;10.60;99.90;;;;;;5104751;28;20086;-80
2023/03/23 06:01:47;;;;;;;16.95;2.67;;;10.60;99.90;;;;;;5106216;28;20103;-81
2023/03/23 06:04:13;;;;;;;14.20;2.28;;;10.60;99.90;;;;;;5105684;28;20048;-80
2023/03/23 06:06:41;;;;;;;15.10;3.08;;;10.60;99.90;;;;;;5088116;28;20526;-82
2023/03/23 06:09:07;;;;;;;26.05;4.60;;;10.60;99.90;;;;;;5106362;28;20075;-80
2023/03/23 06:11:33;;;;;;;18.00;3.72;;;10.60;99.90;;;;;;5087769;28;20082;-80
2023/03/23 06:13:59;;;;;;;14.52;2.35;;;10.80;99.90;;;;;;5090353;28;20039;-79
2023/03/23 06:16:25;;;;;;;17.33;3.13;;;10.60;99.90;;;;;;5104838;28;20494;-80
2023/03/23 06:18:51;;;;;;;20.77;2.90;;;10.60;99.90;;;;;;5106139;28;20505;-79
2023/03/23 06:21:18;;;;;;;16.63;3.00;;;9.60;99.90;;;;;;5105264;28;20495;-79
2023/03/23 06:23:45;;;;;;;18.88;2.67;;;10.60;99.90;;;;;;5087658;28;20039;-80
2023/03/23 06:26:14;;;;;;;15.98;2.97;;;10.60;99.90;;;;;;5088882;28;20081;-80
2023/03/23 06:28:40;;;;;;;18.70;3.42;;;10.50;99.90;;;;;;5105449;28;20055;-80
2023/03/23 06:31:09;;;;;;;20.10;3.78;;;10.60;99.90;;;;;;5106349;28;20047;-80
2023/03/23 06:33:36;;;;;;;20.92;3.17;;;10.70;99.90;;;;;;5103976;28;20078;-80
2023/03/23 06:36:03;;;;;;;21.42;3.22;;;10.70;99.90;;;;;;5105335;28;20039;-83
2023/03/23 06:38:29;;;;;;;19.73;3.63;;;10.70;99.90;;;;;;5088022;28;20105;-81
2023/03/23 06:40:56;;;;;;;18.08;3.10;;;10.70;99.90;;;;;;5104750;28;20039;-79
2023/03/23 06:43:22;;;;;;;21.85;4.32;;;10.70;99.90;;;;;;5107340;28;20054;-80
2023/03/23 06:45:49;;;;;;;10.60;1.92;;;11.10;99.90;;;;;;5103519;28;20059;-81
2023/03/23 06:48:15;;;;;;;15.18;2.75;;;10.70;99.90;;;;;;5071984;28;20047;-81
2023/03/23 06:50:45;;;;;;;12.27;1.90;;;10.60;99.90;;;;;;5086844;28;20411;-81
2023/03/23 06:53:11;;;;;;;13.85;1.92;;;10.90;99.90;;;;;;5087978;28;20402;-83
2023/03/23 06:55:38;;;;;;;11.30;1.30;;;10.50;99.90;;;;;;5104203;28;20075;-80
2023/03/23 06:58:05;;;;;;;7.72;1.60;;;10.60;99.90;;;;;;5104414;28;20620;-80
2023/03/23 07:00:32;;;;;;;8.52;1.80;;;10.40;99.90;;;;;;5105970;28;20086;-80
2023/03/23 07:02:58;;;;;;;10.52;1.80;;;10.30;99.90;;;;;;5103299;28;20079;-80
2023/03/23 07:05:24;;;;;;;10.50;1.55;;;10.30;99.90;;;;;;5105833;28;20082;-80
2023/03/23 07:07:51;;;;;;;8.02;1.20;;;10.70;99.90;;;;;;5103780;28;20050;-81
2023/03/23 07:10:17;;;;;;;7.60;1.40;;;10.20;99.90;;;;;;5104729;28;20539;-81
2023/03/23 07:12:43;;;;;;;9.38;1.42;;;10.20;99.90;;;;;;5087117;28;20131;-81
2023/03/23 07:15:10;;;;;;;12.82;2.20;;;10.20;99.90;;;;;;5087002;28;20139;-81
2023/03/23 07:17:37;;;;;;;11.95;1.20;;;10.20;99.90;;;;;;5105281;28;20067;-80
2023/03/23 07:20:04;;;;;;;9.60;1.48;;;10.50;99.90;;;;;;5102749;28;20051;-81
2023/03/23 07:22:31;;;;;;;11.32;2.47;;;10.30;99.90;;;;;;5104944;28;20513;-80
2023/03/23 07:24:56;;;;;;;17.00;2.28;;;10.30;99.90;;;;;;5102507;28;20098;-81
2023/03/23 07:27:24;;;;;;;13.68;2.72;;;10.50;99.90;;;;;;5087763;28;20071;-81
2023/03/23 07:29:50;;;;;;;13.02;1.77;;;10.30;99.90;;;;;;5069919;28;20401;-81
2023/03/23 07:32:16;;;;;;;16.50;2.80;;;10.30;99.90;;;;;;5068988;28;20090;-80
2023/03/23 07:34:42;;;;;;;22.55;3.10;;;10.30;99.90;;;;;;5087248;28;20054;-85
2023/03/23 07:37:08;;;;;;;21.15;4.07;;;10.30;99.90;;;;;;5069158;28;20044;-82
2023/03/23 07:39:35;;;;;;;29.95;3.92;;;10.30;99.90;;;;;;5071268;28;20130;-80
2023/03/23 07:42:00;;;;;;;21.35;3.03;;;10.30;99.90;;;;;;5102627;28;20039;-80
2023/03/23 07:44:26;;;;;;;20.48;3.20;;;11.50;99.90;;;;;;5104385;28;20048;-81
2023/03/23 07:46:52;;;;;;;20.30;3.45;;;10.50;99.90;;;;;;5087046;28;20118;-80
2023/03/23 07:49:18;;;;;;;31.42;3.83;;;10.60;99.90;;;;;;5085894;28;20039;-81
2023/03/23 07:51:45;;;;;;;25.55;3.65;;;10.70;99.90;;;;;;5087516;28;20532;-80
2023/03/23 07:54:11;;;;;;;19.17;4.10;;;10.90;99.90;;;;;;5102289;28;20123;-81
2023/03/23 07:56:41;;;;;;;28.83;4.57;;;10.90;99.90;;;;;;5105260;28;20050;-80
2023/03/23 07:59:07;;;;;;;35.20;5.72;;;10.90;99.90;;;;;;5085827;28;20081;-80
2023/03/23 08:01:33;;;;;;;20.63;4.07;;;11.00;99.90;;;;;;5087380;28;20050;-81
2023/03/23 08:03:59;;;;;;;23.70;3.67;;;11.00;99.90;;;;;;5103985;28;20044;-80
2023/03/23 08:06:28;;;;;;;32.22;3.83;;;11.10;99.90;;;;;;5088613;28;20071;-80
2023/03/23 08:08:54;;;;;;;26.05;3.97;;;11.10;99.90;;;;;;5108543;28;20413;-80
2023/03/23 08:11:20;;;;;;;22.42;4.03;;;11.10;99.90;;;;;;5089351;28;20104;-80
2023/03/23 08:13:47;;;;;;;22.88;4.25;;;11.10;99.90;;;;;;5092356;28;20052;-81
2023/03/23 08:16:13;;;;;;;31.70;4.18;;;11.10;99.90;;;;;;5089562;28;20114;-80
2023/03/23 08:18:39;;;;;;;25.77;4.70;;;11.10;99.90;;;;;;5108341;28;20043;-81
2023/03/23 08:21:09;;;;;;;21.45;4.15;;;11.10;99.90;;;;;;5107768;28;20530;-80
2023/03/23 08:23:39;;;;;;;41.10;6.45;;;11.10;99.90;;;;;;5107592;28;20036;-81
2023/03/23 08:26:08;;;;;;;22.52;4.35;;;11.20;99.90;;;;;;5107853;28;20063;-80
2023/03/23 08:28:35;;;;;;;21.02;4.13;;;11.30;99.90;;;;;;5089392;28;20055;-80
2023/03/23 08:31:07;;;;;;;22.63;3.80;;;11.40;99.90;;;;;;5092065;28;20043;-80
2023/03/23 08:33:33;;;;;;;29.58;3.95;;;11.40;99.90;;;;;;5106600;28;20059;-81
2023/03/23 08:36:00;;;;;;;27.73;4.30;;;11.50;99.90;;;;;;5109262;28;20054;-81
2023/03/23 08:38:27;;;;;;;26.80;5.18;;;11.50;99.90;;;;;;5091214;28;20651;-81
2023/03/23 08:40:58;;;;;;;29.98;3.58;;;11.50;99.90;;;;;;5107444;28;20052;-81
2023/03/23 08:43:24;;;;;;;35.13;5.93;;;11.50;99.90;;;;;;5092380;28;20495;-81
2023/03/23 08:45:51;;;;;;;25.25;3.80;;;11.50;99.90;;;;;;5089422;28;20083;-81
2023/03/23 08:48:17;;;;;;;33.65;3.75;;;11.80;99.90;;;;;;5091886;28;20044;-81
2023/03/23 08:50:43;;;;;;;27.17;4.70;;;11.70;99.90;;;;;;5106325;28;20581;-81
2023/03/23 08:53:10;;;;;;;28.42;3.97;;;11.80;99.90;;;;;;5107190;28;20051;-81
2023/03/23 08:55:35;;;;;;;26.98;3.67;;;11.80;99.90;;;;;;5107523;28;20440;-80
2023/03/23 08:58:03;;;;;;;33.13;4.25;;;11.80;99.90;;;;;;5106347;28;20046;-81
2023/03/23 09:00:30;;;;;;;34.28;4.93;;;11.80;99.90;;;;;;5091332;28;20606;-81
2023/03/23 09:02:56;;;;;;;26.17;4.25;;;11.90;99.90;;;;;;5105626;28;20615;-81
2023/03/23 09:05:26;;;;;;;24.10;4.15;;;12.10;99.90;;;;;;5091797;28;20407;-80
2023/03/23 09:07:58;;;;;;;22.58;3.65;;;12.10;99.90;;;;;;5106205;28;20039;-81
2023/03/23 09:10:26;;;;;;;19.90;3.47;;;12.20;99.90;;;;;;5106745;28;20433;-80
2023/03/23 09:12:53;;;;;;;20.35;3.97;;;12.30;99.90;;;;;;5107260;28;20428;-80
2023/03/23 09:15:19;;;;;;;27.98;4.07;;;12.20;99.90;;;;;;5105586;28;20047;-81
2023/03/23 09:17:48;;;;;;;33.63;4.78;;;12.10;99.90;;;;;;5106895;28;20180;-81
2023/03/23 09:20:16;;;;;;;29.95;5.80;;;12.20;99.90;;;;;;5105007;28;20130;-81
2023/03/23 09:22:48;;;;;;;28.25;4.68;;;12.20;99.90;;;;;;5107419;28;20036;-81
2023/03/23 09:25:18;;;;;;;25.30;5.55;;;12.20;99.90;;;;;;5105762;28;20071;-81
2023/03/23 09:27:46;;;;;;;29.42;4.30;;;12.30;99.90;;;;;;5072565;28;20475;-81
2023/03/23 09:30:14;;;;;;;28.10;4.50;;;12.40;99.90;;;;;;5073243;28;20044;-81
2023/03/23 09:32:42;;;;;;;23.23;3.97;;;12.40;99.90;;;;;;5105252;28;20039;-81
2023/03/23 09:35:09;;;;;;;25.23;5.47;;;12.50;99.90;;;;;;5107803;28;20048;-81
2023/03/23 09:37:35;;;;;;;25.73;4.25;;;12.60;99.90;;;;;;5087970;28;20605;-81
2023/03/23 09:40:03;;;;;;;24.17;3.97;;;12.60;99.90;;;;;;5107473;28;20040;-81
2023/03/23 09:43:04;;;;;;;31.13;3.85;;;12.50;99.90;;;;;;5105847;28;20044;-81
2023/03/23 09:46:04;;;;;;;30.75;4.70;;;12.40;99.90;;;;;;5043763;28;20448;-81
2023/03/23 09:48:41;;;;;;;20.17;3.55;;;12.20;99.90;;;;;;5107238;28;20047;-80
2023/03/23 09:51:28;;;;;;;25.45;4.50;;;12.10;99.90;;;;;;5106129;28;20490;-81
2023/03/23 09:53:58;;;;;;;26.90;3.45;;;12.00;99.90;;;;;;5088101;28;20047;-83
2023/03/23 09:56:27;;;;;;;23.30;3.45;;;12.00;99.90;;;;;;5107886;28;20044;-81
2023/03/23 09:59:16;;;;;;;23.35;3.90;;;10.90;99.90;;;;;;5088435;28;20073;-81
2023/03/23 10:01:48;;;;;;;24.48;4.47;;;12.30;99.90;;;;;;5089185;28;20047;-81
2023/03/23 10:04:17;;;;;;;27.17;4.55;;;12.60;99.90;;;;;;5089026;28;20051;-81
2023/03/23 10:06:46;;;;;;;17.60;3.75;;;12.90;99.90;;;;;;5104928;28;20086;-82
2023/03/23 10:09:16;;;;;;;21.85;3.63;;;13.20;99.90;;;;;;5106806;28;20047;-82
2023/03/23 10:11:47;;;;;;;19.45;3.95;;;13.50;99.90;;;;;;5104668;28;20051;-81
2023/03/23 10:14:18;;;;;;;28.25;3.95;;;13.80;99.90;;;;;;5106660;28;20067;-81
2023/03/23 10:16:53;;;;;;;23.33;5.15;;;14.00;99.90;;;;;;5105929;28;20126;-81
2023/03/23 10:19:31;;;;;;;22.75;3.63;;;14.30;99.90;;;;;;5105153;28;20040;-81
2023/03/23 10:22:06;;;;;;;27.17;3.80;;;14.50;99.90;;;;;;5106896;28;20400;-81
2023/03/23 10:24:42;;;;;;;19.63;2.88;;;14.60;99.90;;;;;;5087353;28;20052;-82
2023/03/23 10:27:47;;;;;;;22.80;3.72;;;14.70;99.90;;;;;;5105849;28;20062;-81
2023/03/23 10:30:35;;;;;;;18.63;3.55;;;14.70;99.90;;;;;;5027350;28;20048;-81
2023/03/23 10:33:13;;;;;;;19.80;3.83;;;14.70;99.90;;;;;;5025848;28;20552;-82
2023/03/23 10:35:51;;;;;;;19.15;3.13;;;14.70;99.90;;;;;;5081831;28;20056;-81
2023/03/23 10:38:39;;;;;;;18.50;3.75;;;14.60;99.90;;;;;;5105582;28;20061;-81
2023/03/23 10:41:13;;;;;;;18.23;2.85;;;14.50;99.90;;;;;;5104089;28;20079;-81
2023/03/23 10:43:41;;;;;;;17.17;3.10;;;14.40;99.90;;;;;;5108088;28;20036;-81
2023/03/23 10:46:29;;;;;;;23.95;3.55;;;14.40;99.90;;;;;;5104414;28;20043;-81
2023/03/23 10:48:58;;;;;;;16.25;2.60;;;14.20;99.90;;;;;;5082202;27;20524;-82
2023/03/23 10:51:34;;;;;;;20.05;3.58;;;14.00;99.90;;;;;;5088951;28;20393;-81
2023/03/23 10:54:04;;;;;;;19.55;4.00;;;13.80;99.90;;;;;;5086683;28;20040;-82
2023/03/23 10:56:42;;;;;;;21.98;3.75;;;13.60;99.90;;;;;;5106284;28;20047;-81
2023/03/23 10:59:15;;;;;;;23.27;3.38;;;13.60;99.90;;;;;;5103968;28;20047;-82
2023/03/23 11:01:45;;;;;;;20.65;3.40;;;13.60;99.90;;;;;;5087680;28;20513;-82
2023/03/23 11:04:17;;;;;;;24.42;4.53;;;13.70;99.90;;;;;;5104822;28;20036;-81
2023/03/23 11:06:50;;;;;;;24.20;3.93;;;13.60;99.90;;;;;;5104029;28;20509;-82
2023/03/23 11:09:19;;;;;;;22.27;3.92;;;13.50;99.90;;;;;;5088906;28;20054;-82
2023/03/23 11:11:54;;;;;;;20.35;3.90;;;13.40;99.90;;;;;;5103939;28;20118;-82
2023/03/23 11:14:29;;;;;;;22.73;3.47;;;13.40;99.90;;;;;;5105352;28;20047;-82
2023/03/23 11:17:01;;;;;;;23.50;3.38;;;13.40;99.90;;;;;;5104597;28;20581;-81
2023/03/23 11:19:29;;;;;;;22.77;4.65;;;13.40;99.90;;;;;;5103835;28;20039;-80
2023/03/23 11:22:05;;;;;;;18.70;3.42;;;13.30;99.90;;;;;;5105138;28;20077;-81
2023/03/23 11:24:34;;;;;;;21.88;4.43;;;13.30;99.90;;;;;;5103144;28;20086;-82
2023/03/23 11:27:00;;;;;;;24.75;3.70;;;13.50;99.90;;;;;;5088028;28;20043;-82
2023/03/23 11:29:28;;;;;;;19.52;3.42;;;13.70;99.90;;;;;;5103732;28;20052;-82
2023/03/23 11:32:10;;;;;;;21.17;3.45;;;13.70;99.90;;;;;;5088007;28;20071;-81
2023/03/23 11:34:45;;;;;;;19.90;3.13;;;13.80;99.90;;;;;;5106103;28;20043;-81
2023/03/23 11:37:23;;;;;;;18.52;3.53;;;14.00;99.90;;;;;;5087675;28;20091;-81
2023/03/23 11:39:58;;;;;;;22.08;4.20;;;14.20;99.90;;;;;;5088135;28;20134;-80
2023/03/23 11:42:31;;;;;;;22.52;3.00;;;14.20;99.90;;;;;;5087064;28;20040;-80
2023/03/23 11:45:16;;;;;;;;;;;14.30;99.90;;;;;;5104319;28;20044;-80
2023/03/23 11:47:58;;;;;;;17.77;3.60;;;14.40;99.90;;;;;;5105294;28;19920;-81
2023/03/23 11:50:29;;;;;;;14.70;2.97;;;14.40;99.90;;;;;;5102878;28;20486;-80
2023/03/23 11:53:07;;;;;;;16.05;2.55;;;14.70;99.90;;;;;;5104535;28;20088;-80
2023/03/23 11:55:55;;;;;;;20.08;2.63;;;14.80;99.90;;;;;;5088066;28;20092;-79
2023/03/23 11:58:21;;;;;;;14.18;2.05;;;15.00;99.90;;;;;;5103627;28;20048;-82
2023/03/23 12:01:13;;;;;;;15.57;2.25;;;14.90;99.90;;;;;;5105397;28;20100;-81
2023/03/23 12:03:57;;;;;;;12.50;2.85;;;14.80;99.90;;;;;;5086566;28;20475;-82
2023/03/23 12:06:41;;;;;;;15.40;2.00;;;14.80;99.90;;;;;;5086512;28;20499;-83
2023/03/23 12:09:32;;;;;;;15.48;2.53;;;14.90;99.90;;;;;;5087639;28;20609;-82
2023/03/23 12:12:12;;;;;;;10.98;2.13;;;15.10;99.90;;;;;;5103886;28;20153;-83
2023/03/23 12:14:51;;;;;;;17.23;2.67;;;15.30;99.90;;;;;;5105362;28;20328;-82
2023/03/23 12:17:19;;;;;;;11.15;2.35;;;15.50;99.90;;;;;;5106610;28;20070;-82
2023/03/23 12:19:59;;;;;;;13.00;2.00;;;15.70;99.90;;;;;;5103449;28;20054;-81
2023/03/23 12:22:28;;;;;;;12.18;2.22;;;15.90;99.90;;;;;;5106656;28;20050;-81
2023/03/23 12:25:18;;;;;;;12.65;2.40;;;16.00;99.90;;;;;;5104534;28;20048;-82
2023/03/23 12:28:01;;;;;;;13.18;2.75;;;15.90;99.90;;;;;;5104311;28;20060;-82
2023/03/23 12:30:40;;;;;;;12.80;2.13;;;15.80;99.90;;;;;;5105150;28;20073;-81
2023/03/23 12:33:27;;;;;;;14.90;2.40;;;15.80;99.90;;;;;;5086752;28;20513;-83
2023/03/23 12:35:54;;;;;;;13.25;2.42;;;15.90;99.90;;;;;;5104329;28;20039;-82
2023/03/23 12:38:27;;;;;;;17.13;2.55;;;15.90;99.90;;;;;;5086999;28;20075;-82
2023/03/23 12:41:18;;;;;;;10.60;1.95;;;15.90;99.90;;;;;;5103294;28;20442;-82
2023/03/23 12:43:56;;;;;;;10.48;2.60;;;15.90;99.60;;;;;;5104650;28;20052;-82
2023/03/23 12:46:50;;;;;;;15.77;2.70;;;15.70;99.90;;;;;;5103437;28;20410;-82
2023/03/23 12:49:40;;;;;;;16.75;2.33;;;15.50;99.30;;;;;;5102798;28;20073;-82
2023/03/23 12:52:16;;;;;;;11.73;1.85;;;15.30;99.90;;;;;;5108518;28;20048;-80
2023/03/23 12:54:54;;;;;;;16.02;2.72;;;15.40;99.90;;;;;;5106122;28;20055;-81
2023/03/23 12:57:52;;;;;;;11.30;1.95;;;15.30;99.70;;;;;;5107804;28;20375;-80
2023/03/23 13:00:48;;;;;;;15.02;2.50;;;15.20;99.90;;;;;;5090795;28;20071;-80